Time;durP1;ratioP1;P1;durP2;ratioP2;P2;SDS_P1;SDS_P2;PMS_P1;PMS_P2;Temp;Humidity;BMP_temperature;BMP_pressure;BME280_temperature;BME280_humidity;BME280_pressure;Samples;Min_cycle;Max_cycle;Signal;HPM_P1;HPM_P2
2022/12/18 00:01:21;;;;;;;8.43;1.42;;;;;;;;;;5004122;28;20625;-72
2022/12/18 00:03:48;;;;;;;6.38;1.23;;;;;;;;;;5002517;28;20025;-73
2022/12/18 00:06:14;;;;;;;4.85;1.20;;;;;;;;;;5002434;28;20192;-73
2022/12/18 00:08:41;;;;;;;6.93;1.80;;;;;;;;;;5004798;28;20040;-72
2022/12/18 00:11:08;;;;;;;8.07;1.35;;;;;;;;;;5003059;28;20034;-74
2022/12/18 00:13:35;;;;;;;8.52;1.35;;;;;;;;;;5004771;28;20111;-73
2022/12/18 00:16:06;;;;;;;8.75;1.17;;;;;;;;;;4999635;28;20026;-74
2022/12/18 00:18:32;;;;;;;7.83;1.40;;;;;;;;;;5005299;28;20430;-73
2022/12/18 00:21:02;;;;;;;6.15;1.05;;;;;;;;;;5005846;28;20061;-77
2022/12/18 00:23:29;;;;;;;5.45;1.08;;;;;;;;;;5002331;28;20661;-74
2022/12/18 00:25:55;;;;;;;4.50;1.10;;;;;;;;;;5005178;28;20061;-73
2022/12/18 00:28:21;;;;;;;4.47;1.10;;;;;;;;;;5001590;28;20080;-73
2022/12/18 00:30:51;;;;;;;7.95;1.35;;;;;;;;;;5003776;28;20030;-73
2022/12/18 00:33:17;;;;;;;10.15;1.52;;;;;;;;;;5001020;28;20572;-72
2022/12/18 00:35:43;;;;;;;6.25;1.15;;;;;;;;;;5001642;28;20025;-72
2022/12/18 00:38:09;;;;;;;6.30;1.45;;;;;;;;;;5003246;28;20025;-73
2022/12/18 00:40:35;;;;;;;9.75;1.40;;;;;;;;;;5019684;28;20099;-73
2022/12/18 00:43:02;;;;;;;5.75;1.67;;;;;;;;;;5001434;28;20053;-72
2022/12/18 00:45:29;;;;;;;4.05;0.98;;;;;;;;;;5004448;28;20033;-72
2022/12/18 00:47:56;;;;;;;3.15;1.00;;;;;;;;;;5003204;28;20040;-73
2022/12/18 00:50:23;;;;;;;5.57;1.45;;;;;;;;;;5001590;28;20026;-73
2022/12/18 00:52:49;;;;;;;4.82;1.75;;;;;;;;;;5002482;28;20025;-74
2022/12/18 00:55:16;;;;;;;5.25;1.52;;;;;;;;;;5005837;28;20179;-72
2022/12/18 00:57:42;;;;;;;5.00;1.20;;;;;;;;;;5000265;28;20029;-72
2022/12/18 01:00:10;;;;;;;10.80;1.70;;;;;;;;;;5000332;28;20053;-73
2022/12/18 01:02:36;;;;;;;7.80;2.45;;;;;;;;;;5002981;28;20814;-73
2022/12/18 01:05:03;;;;;;;7.22;1.48;;;;;;;;;;5003752;28;20028;-72
2022/12/18 01:07:29;;;;;;;3.38;1.30;;;;;;;;;;5001646;28;20025;-72
2022/12/18 01:09:55;;;;;;;3.40;1.00;;;;;;;;;;5001778;28;20030;-73
2022/12/18 01:12:21;;;;;;;6.95;1.40;;;;;;;;;;5015221;28;20037;-74
2022/12/18 01:14:47;;;;;;;3.70;1.10;;;;;;;;;;4994819;28;20026;-73
2022/12/18 01:17:14;;;;;;;5.93;1.73;;;;;;;;;;5000501;28;20026;-76
2022/12/18 01:19:40;;;;;;;7.40;1.10;;;;;;;;;;4996483;28;20373;-74
2022/12/18 01:22:06;;;;;;;5.47;1.45;;;;;;;;;;5002197;28;20017;-73
2022/12/18 01:24:33;;;;;;;5.60;1.65;;;;;;;;;;5000306;28;20049;-73
2022/12/18 01:26:59;;;;;;;4.10;1.45;;;;;;;;;;4996834;28;20064;-73
2022/12/18 01:29:25;;;;;;;5.80;1.20;;;;;;;;;;5000852;28;20079;-73
2022/12/18 01:31:51;;;;;;;6.45;1.95;;;;;;;;;;4997980;28;20887;-72
2022/12/18 01:34:17;;;;;;;9.02;1.38;;;;;;;;;;4995690;28;20029;-72
2022/12/18 01:36:43;;;;;;;4.32;1.17;;;;;;;;;;5001797;28;20026;-72
2022/12/18 01:39:12;;;;;;;5.88;1.35;;;;;;;;;;4999610;28;20133;-72
2022/12/18 01:44:42;;;;;;;8.57;1.95;;;;;;;;;;5000587;28;20029;-73
2022/12/18 01:47:08;;;;;;;4.55;1.05;;;;;;;;;;5000480;28;20048;-72
2022/12/18 01:49:34;;;;;;;4.40;1.20;;;;;;;;;;5001767;28;20063;-72
2022/12/18 01:52:00;;;;;;;4.97;1.70;;;;;;;;;;4999509;28;20030;-72
2022/12/18 01:54:26;;;;;;;5.55;1.23;;;;;;;;;;5002024;28;20026;-72
2022/12/18 01:56:53;;;;;;;6.68;1.30;;;;;;;;;;4999707;28;20018;-72
2022/12/18 01:59:19;;;;;;;4.20;1.48;;;;;;;;;;5001205;28;20072;-73
2022/12/18 02:01:45;;;;;;;6.38;1.13;;;;;;;;;;5014982;28;20026;-73
2022/12/18 02:04:22;;;;;;;4.38;1.50;;;;;;;;;;4996495;28;20067;-72
2022/12/18 02:06:51;;;;;;;8.20;2.22;;;;;;;;;;4996999;28;20022;-72
2022/12/18 02:09:23;;;;;;;7.38;1.63;;;;;;;;;;4996411;28;20029;-72
2022/12/18 02:12:01;;;;;;;9.05;1.40;;;;;;;;;;4993682;28;20160;-72
2022/12/18 02:14:44;;;;;;;8.27;1.30;;;;;;;;;;4991233;28;20169;-72
2022/12/18 02:17:17;;;;;;;7.68;1.30;;;;;;;;;;4994538;28;20029;-72
2022/12/18 02:19:49;;;;;;;5.60;2.08;;;;;;;;;;4995697;28;20026;-73
2022/12/18 02:22:26;;;;;;;6.05;1.60;;;;;;;;;;4996299;28;20025;-72
2022/12/18 02:25:11;;;;;;;10.10;2.05;;;;;;;;;;4998179;28;20076;-73
2022/12/18 02:27:37;;;;;;;12.15;1.60;;;;;;;;;;4996093;28;20029;-72
2022/12/18 02:30:05;;;;;;;8.52;1.73;;;;;;;;;;4999170;28;20041;-72
2022/12/18 02:32:33;;;;;;;5.90;1.90;;;;;;;;;;4997706;28;20041;-72
2022/12/18 02:35:00;;;;;;;7.35;1.80;;;;;;;;;;4998037;28;20026;-72
2022/12/18 02:37:28;;;;;;;6.28;1.40;;;;;;;;;;4993872;28;20697;-72
2022/12/18 02:39:57;;;;;;;7.85;1.73;;;;;;;;;;4997697;28;20026;-72
2022/12/18 02:42:23;;;;;;;12.52;1.75;;;;;;;;;;4992037;28;20576;-72
2022/12/18 02:44:50;;;;;;;8.60;1.73;;;;;;;;;;4998728;28;20029;-72
2022/12/18 02:47:22;;;;;;;6.82;1.90;;;;;;;;;;4999026;28;20042;-72
2022/12/18 02:49:54;;;;;;;6.43;1.70;;;;;;;;;;4995820;28;20033;-72
2022/12/18 02:52:36;;;;;;;9.40;1.73;;;;;;;;;;4994454;28;20118;-72
2022/12/18 02:55:08;;;;;;;6.28;1.67;;;;;;;;;;4990366;28;20032;-72
2022/12/18 02:57:43;;;;;;;7.88;1.95;;;;;;;;;;4993567;28;20026;-72
2022/12/18 03:00:24;;;;;;;7.28;1.63;;;;;;;;;;4992426;28;20758;-72
2022/12/18 03:03:01;;;;;;;8.68;1.92;;;;;;;;;;4995359;28;20030;-72
2022/12/18 03:05:40;;;;;;;8.05;2.28;;;;;;;;;;4999267;28;20036;-72
2022/12/18 03:08:08;;;;;;;7.18;1.60;;;;;;;;;;4997510;28;20033;-72
2022/12/18 03:10:39;;;;;;;7.35;1.63;;;;;;;;;;4999883;28;20033;-72
2022/12/18 03:13:08;;;;;;;10.57;2.53;;;;;;;;;;5000020;28;20010;-72
2022/12/18 03:15:43;;;;;;;7.53;1.60;;;;;;;;;;5002775;28;20030;-72
2022/12/18 03:18:15;;;;;;;7.97;2.70;;;;;;;;;;5002760;28;20493;-72
2022/12/18 03:20:43;;;;;;;9.65;1.83;;;;;;;;;;5001076;28;20107;-72
2022/12/18 03:23:12;;;;;;;6.43;1.60;;;;;;;;;;4999511;28;20046;-72
2022/12/18 03:25:40;;;;;;;11.23;1.77;;;;;;;;;;4997987;28;20078;-72
2022/12/18 03:28:09;;;;;;;8.13;1.50;;;;;;;;;;4999097;28;20025;-73
2022/12/18 03:30:37;;;;;;;6.38;1.95;;;;;;;;;;4999407;28;20577;-72
2022/12/18 03:33:08;;;;;;;4.38;1.27;;;;;;;;;;4998941;28;20040;-72
2022/12/18 03:35:38;;;;;;;4.68;1.20;;;;;;;;;;5002911;28;20029;-72
2022/12/18 03:38:04;;;;;;;3.63;1.13;;;;;;;;;;5002669;28;20104;-73
2022/12/18 03:40:50;;;;;;;6.72;1.50;;;;;;;;;;5003069;28;20053;-72
2022/12/18 03:43:26;;;;;;;7.70;1.65;;;;;;;;;;5000428;28;20026;-72
2022/12/18 03:46:03;;;;;;;6.53;1.50;;;;;;;;;;5003419;28;20693;-72
2022/12/18 03:48:35;;;;;;;7.57;1.67;;;;;;;;;;5001466;28;20025;-72
2022/12/18 03:51:09;;;;;;;6.80;1.45;;;;;;;;;;5002465;28;20037;-72
2022/12/18 03:53:48;;;;;;;6.70;1.60;;;;;;;;;;5003158;28;20604;-72
2022/12/18 03:56:15;;;;;;;4.38;1.73;;;;;;;;;;5003116;28;20049;-72
2022/12/18 03:58:42;;;;;;;2.78;1.20;;;;;;;;;;5002355;28;20030;-72
2022/12/18 04:01:09;;;;;;;5.55;1.48;;;;;;;;;;5000037;28;20026;-72
2022/12/18 04:03:36;;;;;;;5.47;1.20;;;;;;;;;;5003788;28;20042;-72
2022/12/18 04:06:03;;;;;;;5.20;1.60;;;;;;;;;;5005297;28;20041;-72
2022/12/18 04:08:29;;;;;;;5.80;1.40;;;;;;;;;;5002927;28;20052;-72
2022/12/18 04:10:56;;;;;;;7.32;1.55;;;;;;;;;;5001924;28;20473;-72
2022/12/18 04:13:23;;;;;;;4.68;1.17;;;;;;;;;;5003182;28;20023;-72
2022/12/18 04:15:49;;;;;;;2.72;1.05;;;;;;;;;;5002004;28;20049;-72
2022/12/18 04:18:15;;;;;;;3.10;0.93;;;;;;;;;;4997046;28;20033;-72
2022/12/18 04:20:41;;;;;;;5.57;1.55;;;;;;;;;;4996609;28;20041;-72
2022/12/18 04:23:07;;;;;;;3.38;0.90;;;;;;;;;;4996349;28;20030;-72
2022/12/18 04:25:33;;;;;;;3.50;0.93;;;;;;;;;;4993896;28;20513;-72
2022/12/18 04:27:59;;;;;;;6.80;1.40;;;;;;;;;;4992719;28;20029;-72
2022/12/18 04:30:26;;;;;;;9.30;1.10;;;;;;;;;;4996103;28;20038;-72
2022/12/18 04:32:52;;;;;;;4.47;1.35;;;;;;;;;;4995433;28;20030;-72
2022/12/18 04:35:18;;;;;;;4.00;1.35;;;;;;;;;;4999498;28;20041;-72
2022/12/18 04:37:44;;;;;;;4.22;1.02;;;;;;;;;;4994404;28;20030;-72
2022/12/18 04:40:11;;;;;;;11.35;1.83;;;;;;;;;;4996353;28;20678;-72
2022/12/18 04:42:37;;;;;;;5.00;1.20;;;;;;;;;;4998755;28;20058;-72
2022/12/18 04:45:03;;;;;;;5.60;1.30;;;;;;;;;;4994428;28;20029;-72
2022/12/18 04:47:29;;;;;;;5.88;0.95;;;;;;;;;;4998123;28;20052;-72
2022/12/18 04:49:55;;;;;;;3.40;1.10;;;;;;;;;;4993415;28;20024;-72
2022/12/18 04:52:22;;;;;;;2.85;0.90;;;;;;;;;;4998650;28;20034;-72
2022/12/18 04:54:48;;;;;;;4.65;1.42;;;;;;;;;;4992887;28;20415;-72
2022/12/18 04:57:14;;;;;;;8.63;1.05;;;;;;;;;;4996527;28;20693;-72
2022/12/18 04:59:40;;;;;;;9.23;1.40;;;;;;;;;;4997506;28;20673;-72
2022/12/18 05:02:06;;;;;;;4.50;1.00;;;;;;;;;;4997238;28;20065;-72
2022/12/18 05:04:32;;;;;;;5.13;1.30;;;;;;;;;;4998057;28;20084;-72
2022/12/18 05:06:59;;;;;;;3.08;0.85;;;;;;;;;;4996392;28;20048;-72
2022/12/18 05:09:25;;;;;;;12.52;1.63;;;;;;;;;;4996053;28;20033;-72
2022/12/18 05:11:51;;;;;;;5.70;0.93;;;;;;;;;;4994817;28;20040;-72
2022/12/18 05:14:17;;;;;;;6.53;1.13;;;;;;;;;;4996243;28;20084;-72
2022/12/18 05:16:43;;;;;;;6.20;1.20;;;;;;;;;;4994332;28;20022;-72
2022/12/18 05:19:09;;;;;;;5.57;1.30;;;;;;;;;;4998564;28;20087;-72
2022/12/18 05:21:36;;;;;;;3.78;0.85;;;;;;;;;;4996777;28;20026;-72
2022/12/18 05:24:02;;;;;;;7.47;1.15;;;;;;;;;;4997554;28;20026;-72
2022/12/18 05:26:28;;;;;;;7.55;1.38;;;;;;;;;;4997629;28;20502;-72
2022/12/18 05:28:54;;;;;;;5.00;1.35;;;;;;;;;;4995550;28;20053;-72
2022/12/18 05:31:20;;;;;;;9.43;1.30;;;;;;;;;;4998018;28;20034;-72
2022/12/18 05:33:46;;;;;;;5.95;1.15;;;;;;;;;;4994649;28;20030;-72
2022/12/18 05:36:13;;;;;;;5.68;1.42;;;;;;;;;;4996276;28;20037;-71
2022/12/18 05:38:39;;;;;;;3.58;1.08;;;;;;;;;;4998511;28;20021;-72
2022/12/18 05:41:06;;;;;;;6.38;0.90;;;;;;;;;;4995875;28;20062;-72
2022/12/18 05:43:34;;;;;;;7.22;1.40;;;;;;;;;;4998439;28;20739;-74
2022/12/18 05:46:03;;;;;;;4.20;0.80;;;;;;;;;;4995579;28;20033;-73
2022/12/18 05:48:29;;;;;;;3.63;0.95;;;;;;;;;;4996228;28;20029;-72
2022/12/18 05:50:56;;;;;;;6.55;1.30;;;;;;;;;;4997565;28;20044;-72
2022/12/18 05:53:22;;;;;;;7.68;1.20;;;;;;;;;;4997075;28;20072;-72
2022/12/18 05:55:49;;;;;;;5.53;1.60;;;;;;;;;;4991086;28;20454;-72
2022/12/18 05:58:15;;;;;;;6.10;1.13;;;;;;;;;;4994384;28;20018;-72
2022/12/18 06:00:42;;;;;;;6.05;1.38;;;;;;;;;;4990448;28;20067;-72
2022/12/18 06:03:09;;;;;;;8.50;1.20;;;;;;;;;;4996797;28;20026;-73
2022/12/18 06:05:37;;;;;;;3.35;1.25;;;;;;;;;;4998036;28;20036;-72
2022/12/18 06:08:03;;;;;;;5.70;1.15;;;;;;;;;;4990058;28;20022;-73
2022/12/18 06:10:29;;;;;;;2.63;0.90;;;;;;;;;;4996342;28;20036;-74
2022/12/18 06:12:55;;;;;;;6.25;1.00;;;;;;;;;;4990569;28;20022;-72
2022/12/18 06:15:21;;;;;;;6.10;1.25;;;;;;;;;;4998546;28;20026;-73
2022/12/18 06:17:48;;;;;;;5.00;1.00;;;;;;;;;;4996394;28;20022;-72
2022/12/18 06:20:14;;;;;;;5.25;1.20;;;;;;;;;;4997537;28;20026;-74
2022/12/18 06:22:40;;;;;;;2.60;0.88;;;;;;;;;;4993532;28;20838;-74
2022/12/18 06:25:06;;;;;;;4.63;1.08;;;;;;;;;;4996625;28;20022;-73
2022/12/18 06:27:33;;;;;;;3.47;1.00;;;;;;;;;;4995126;28;20674;-72
2022/12/18 06:30:00;;;;;;;4.28;1.30;;;;;;;;;;4992017;28;20518;-74
2022/12/18 06:32:26;;;;;;;5.20;1.20;;;;;;;;;;4997832;28;20038;-72
2022/12/18 06:34:53;;;;;;;2.75;1.00;;;;;;;;;;4997185;28;20487;-72
2022/12/18 06:37:19;;;;;;;5.65;1.65;;;;;;;;;;4996420;28;20034;-72
2022/12/18 06:39:45;;;;;;;4.53;1.02;;;;;;;;;;4998787;28;20018;-73
2022/12/18 06:42:12;;;;;;;5.38;1.20;;;;;;;;;;5003681;28;20026;-73
2022/12/18 06:44:38;;;;;;;6.40;1.30;;;;;;;;;;5001019;28;20022;-75
2022/12/18 06:47:04;;;;;;;12.88;1.65;;;;;;;;;;5000616;28;20033;-73
2022/12/18 06:49:30;;;;;;;5.05;1.02;;;;;;;;;;5002215;28;20364;-70
2022/12/18 06:51:56;;;;;;;5.22;1.35;;;;;;;;;;5003273;28;20829;-72
2022/12/18 06:54:22;;;;;;;2.95;1.10;;;;;;;;;;4999406;28;20638;-71
2022/12/18 06:56:48;;;;;;;3.30;1.42;;;;;;;;;;5002073;28;20490;-70
2022/12/18 06:59:16;;;;;;;8.93;1.63;;;;;;;;;;4999549;28;20165;-70
2022/12/18 07:01:42;;;;;;;5.05;1.42;;;;;;;;;;5003370;28;20037;-71
2022/12/18 07:04:08;;;;;;;3.22;1.30;;;;;;;;;;4996499;28;20490;-72
2022/12/18 07:06:34;;;;;;;6.13;1.23;;;;;;;;;;4996072;28;20544;-70
2022/12/18 07:09:00;;;;;;;7.72;1.67;;;;;;;;;;4995022;28;20026;-71
2022/12/18 07:11:27;;;;;;;6.50;1.70;;;;;;;;;;5000382;28;20044;-70
2022/12/18 07:13:54;;;;;;;314.73;27.00;;;;;;;;;;4999643;28;20241;-73
2022/12/18 07:16:21;;;;;;;18.75;3.40;;;;;;;;;;4996981;28;20030;-70
2022/12/18 07:18:47;;;;;;;10.05;2.28;;;;;;;;;;4996298;28;20041;-70
2022/12/18 07:21:15;;;;;;;8.32;1.70;;;;;;;;;;4998247;28;20022;-70
2022/12/18 07:23:42;;;;;;;5.20;1.92;;;;;;;;;;4997173;28;20045;-70
2022/12/18 07:26:09;;;;;;;4.85;1.55;;;;;;;;;;4998129;28;20062;-71
2022/12/18 07:28:36;;;;;;;13.93;2.50;;;;;;;;;;4992949;28;20075;-70
2022/12/18 07:31:07;;;;;;;4.60;1.52;;;;;;;;;;4995100;28;20107;-70
2022/12/18 07:33:33;;;;;;;10.63;1.88;;;;;;;;;;5000588;28;20550;-71
2022/12/18 07:36:04;;;;;;;9.10;2.03;;;;;;;;;;4999107;28;20052;-70
2022/12/18 07:38:31;;;;;;;6.43;2.30;;;;;;;;;;4996509;28;20448;-70
2022/12/18 07:41:07;;;;;;;7.28;1.85;;;;;;;;;;4997725;28;20041;-71
2022/12/18 07:43:34;;;;;;;7.10;1.33;;;;;;;;;;5000776;28;20022;-70
2022/12/18 07:46:00;;;;;;;5.82;1.60;;;;;;;;;;4998841;28;20589;-71
2022/12/18 07:48:26;;;;;;;5.07;1.38;;;;;;;;;;5000038;28;20029;-70
2022/12/18 07:50:53;;;;;;;6.93;1.60;;;;;;;;;;4997716;28;20038;-70
2022/12/18 07:53:19;;;;;;;6.13;2.08;;;;;;;;;;4997589;28;20110;-70
2022/12/18 07:55:45;;;;;;;6.30;2.00;;;;;;;;;;5000846;28;20026;-69
2022/12/18 07:58:12;;;;;;;11.18;1.92;;;;;;;;;;4997165;28;20072;-71
2022/12/18 08:00:38;;;;;;;7.88;2.35;;;;;;;;;;4999216;28;20062;-71
2022/12/18 08:03:05;;;;;;;361.88;27.85;;;;;;;;;;4999743;28;20022;-70
2022/12/18 08:05:31;;;;;;;74.85;7.43;;;;;;;;;;4997732;28;20601;-70
2022/12/18 08:07:58;;;;;;;20.52;3.10;;;;;;;;;;4998845;28;20034;-70
2022/12/18 08:10:25;;;;;;;13.77;2.03;;;;;;;;;;4998211;28;20026;-70
2022/12/18 08:12:51;;;;;;;11.68;1.52;;;;;;;;;;4999229;28;20033;-70
2022/12/18 08:15:18;;;;;;;14.73;2.22;;;;;;;;;;4995769;28;20037;-70
2022/12/18 08:17:44;;;;;;;9.45;2.33;;;;;;;;;;4995285;28;20693;-70
2022/12/18 08:20:10;;;;;;;38.13;3.92;;;;;;;;;;4998775;28;20041;-70
2022/12/18 08:22:36;;;;;;;7.22;1.50;;;;;;;;;;5000813;28;20036;-71
2022/12/18 08:25:06;;;;;;;14.52;2.60;;;;;;;;;;4998609;28;20029;-70
2022/12/18 08:27:32;;;;;;;41.53;4.53;;;;;;;;;;4998266;28;20042;-69
2022/12/18 08:29:58;;;;;;;15.43;2.88;;;;;;;;;;4994935;28;20228;-70
2022/12/18 08:32:25;;;;;;;28.10;3.15;;;;;;;;;;4990617;28;20041;-71
2022/12/18 08:34:51;;;;;;;13.48;2.28;;;;;;;;;;4996444;28;20026;-70
2022/12/18 08:37:17;;;;;;;6.25;2.28;;;;;;;;;;4994823;28;20057;-71
2022/12/18 08:39:43;;;;;;;8.70;2.25;;;;;;;;;;4996588;28;20026;-71
2022/12/18 08:44:55;;;;;;;133.60;13.05;;;;;;;;;;4999600;28;20040;-73
2022/12/18 08:47:21;;;;;;;443.35;53.47;;;;;;;;;;4998723;28;20029;-70
2022/12/18 08:49:47;;;;;;;210.30;19.35;;;;;;;;;;4998940;28;20032;-71
2022/12/18 08:52:13;;;;;;;71.38;8.82;;;;;;;;;;4997512;28;20204;-71
2022/12/18 08:54:39;;;;;;;21.55;3.25;;;;;;;;;;4996051;28;20398;-71
2022/12/18 08:57:06;;;;;;;20.63;2.92;;;;;;;;;;4999117;28;20680;-71
2022/12/18 08:59:32;;;;;;;20.42;2.63;;;;;;;;;;4994122;28;20030;-71
2022/12/18 09:01:58;;;;;;;15.32;1.92;;;;;;;;;;4995122;28;20026;-72
2022/12/18 09:04:24;;;;;;;13.68;2.10;;;;;;;;;;4996197;28;20062;-71
2022/12/18 09:06:51;;;;;;;10.48;1.48;;;;;;;;;;4998085;28;20520;-71
2022/12/18 09:09:17;;;;;;;5.60;1.35;;;;;;;;;;4998715;28;20834;-74
2022/12/18 09:11:43;;;;;;;7.70;1.48;;;;;;;;;;4995512;28;20052;-72
2022/12/18 09:14:10;;;;;;;6.30;1.40;;;;;;;;;;4997671;28;20299;-71
2022/12/18 09:16:36;;;;;;;5.15;1.55;;;;;;;;;;4996835;28;20113;-72
2022/12/18 09:19:03;;;;;;;5.22;1.88;;;;;;;;;;4998403;28;20076;-71
2022/12/18 09:21:32;;;;;;;11.60;2.08;;;;;;;;;;4993745;28;20025;-71
2022/12/18 09:23:58;;;;;;;7.78;1.55;;;;;;;;;;4997054;28;20050;-71
2022/12/18 09:26:25;;;;;;;6.07;1.35;;;;;;;;;;4997449;28;20045;-72
2022/12/18 09:28:51;;;;;;;8.45;1.77;;;;;;;;;;4995736;28;20021;-72
2022/12/18 09:31:19;;;;;;;8.48;1.67;;;;;;;;;;4997950;28;20038;-72
2022/12/18 09:33:45;;;;;;;10.23;1.85;;;;;;;;;;4992322;28;20040;-72
2022/12/18 09:36:12;;;;;;;18.48;3.22;;;;;;;;;;4995285;28;20025;-71
2022/12/18 09:38:38;;;;;;;8.88;1.70;;;;;;;;;;4996682;28;20264;-72
2022/12/18 09:41:14;;;;;;;9.77;2.10;;;;;;;;;;4997979;28;20068;-74
2022/12/18 09:43:46;;;;;;;4.88;2.35;;;;;;;;;;4997209;28;20636;-71
2022/12/18 09:46:18;;;;;;;7.88;1.73;;;;;;;;;;4994195;28;20034;-71
2022/12/18 09:48:50;;;;;;;7.35;2.53;;;;;;;;;;5013041;28;20033;-70
2022/12/18 09:51:18;;;;;;;4.18;1.45;;;;;;;;;;4998772;28;20037;-69
2022/12/18 09:54:02;;;;;;;76.75;6.57;;;;;;;;;;4998920;28;20026;-70
2022/12/18 09:56:29;;;;;;;13.05;1.75;;;;;;;;;;4998139;28;20556;-73
2022/12/18 09:58:58;;;;;;;14.63;1.80;;;;;;;;;;4998736;28;20026;-71
2022/12/18 10:01:24;;;;;;;9.10;1.50;;;;;;;;;;4995243;28;20037;-70
2022/12/18 10:03:54;;;;;;;7.80;1.65;;;;;;;;;;4994696;28;20049;-71
2022/12/18 10:06:23;;;;;;;8.55;2.15;;;;;;;;;;4992409;28;20028;-69
2022/12/18 10:08:55;;;;;;;5.82;1.45;;;;;;;;;;4998371;28;20025;-71
2022/12/18 10:11:33;;;;;;;4.55;1.30;;;;;;;;;;5000775;28;20034;-68
2022/12/18 10:14:05;;;;;;;6.63;1.35;;;;;;;;;;4996447;28;20466;-69
2022/12/18 10:16:32;;;;;;;4.57;1.23;;;;;;;;;;5000222;28;20034;-69
2022/12/18 10:18:58;;;;;;;7.30;1.70;;;;;;;;;;4999033;28;20022;-70
2022/12/18 10:21:47;;;;;;;6.53;1.05;;;;;;;;;;4995829;28;20363;-70
2022/12/18 10:24:21;;;;;;;2.78;1.20;;;;;;;;;;4982439;28;20046;-70
2022/12/18 10:26:48;;;;;;;6.28;1.55;;;;;;;;;;4994156;28;20129;-69
2022/12/18 10:29:15;;;;;;;6.25;1.60;;;;;;;;;;4992280;28;20026;-70
2022/12/18 10:31:41;;;;;;;5.93;1.58;;;;;;;;;;4991867;28;20092;-70
2022/12/18 10:34:13;;;;;;;5.15;1.40;;;;;;;;;;4998136;28;20123;-69
2022/12/18 10:36:39;;;;;;;10.52;1.42;;;;;;;;;;4998088;28;20029;-69
2022/12/18 10:39:16;;;;;;;11.38;2.50;;;;;;;;;;4995258;28;20029;-69
2022/12/18 10:41:42;;;;;;;5.63;1.40;;;;;;;;;;4997948;28;20695;-70
2022/12/18 10:44:11;;;;;;;4.10;1.23;;;;;;;;;;4996297;28;20030;-69
2022/12/18 10:46:37;;;;;;;5.40;1.38;;;;;;;;;;4997117;28;20022;-70
2022/12/18 10:49:04;;;;;;;8.57;1.85;;;;;;;;;;4995624;28;20932;-69
2022/12/18 10:51:33;;;;;;;8.60;1.65;;;;;;;;;;4996846;28;20170;-69
2022/12/18 10:54:15;;;;;;;10.07;2.42;;;;;;;;;;4994684;28;20030;-69
2022/12/18 10:56:41;;;;;;;13.85;2.28;;;;;;;;;;5007807;28;20038;-70
2022/12/18 10:59:09;;;;;;;6.03;1.70;;;;;;;;;;4997297;28;20386;-69
2022/12/18 11:01:47;;;;;;;3.08;1.20;;;;;;;;;;4997111;28;20718;-69
2022/12/18 11:04:17;;;;;;;7.78;1.52;;;;;;;;;;4994733;28;20026;-69
2022/12/18 11:07:06;;;;;;;8.90;1.85;;;;;;;;;;4990807;28;20565;-72
2022/12/18 11:09:34;;;;;;;7.00;1.55;;;;;;;;;;4993418;28;20034;-70
2022/12/18 11:12:01;;;;;;;3.28;1.30;;;;;;;;;;4997122;28;20406;-69
2022/12/18 11:14:29;;;;;;;8.38;1.40;;;;;;;;;;4994959;28;20044;-70
2022/12/18 11:16:56;;;;;;;7.53;2.25;;;;;;;;;;4992345;28;20034;-70
2022/12/18 11:19:29;;;;;;;4.57;1.27;;;;;;;;;;4997854;28;20075;-70
2022/12/18 11:21:55;;;;;;;5.65;1.50;;;;;;;;;;4991240;28;20695;-70
2022/12/18 11:24:26;;;;;;;7.07;1.60;;;;;;;;;;4997480;28;20500;-69
2022/12/18 11:26:52;;;;;;;1.98;0.70;;;;;;;;;;4996152;28;20559;-69
2022/12/18 11:29:23;;;;;;;6.22;1.45;;;;;;;;;;5000794;28;20097;-69
2022/12/18 11:31:49;;;;;;;6.80;1.60;;;;;;;;;;4998035;28;20103;-69
2022/12/18 11:34:18;;;;;;;5.20;1.58;;;;;;;;;;5000900;28;20548;-69
2022/12/18 11:36:48;;;;;;;6.90;1.40;;;;;;;;;;5000398;28;20037;-69
2022/12/18 11:39:18;;;;;;;2.65;1.00;;;;;;;;;;4997220;28;20021;-70
2022/12/18 11:44:41;;;;;;;6.47;1.75;;;;;;;;;;4997907;28;20041;-69
2022/12/18 11:47:16;;;;;;;5.13;1.15;;;;;;;;;;5001133;28;20067;-72
2022/12/18 11:49:42;;;;;;;3.85;1.10;;;;;;;;;;4998424;28;20060;-74
2022/12/18 11:52:17;;;;;;;10.38;1.90;;;;;;;;;;5000652;28;20052;-72
2022/12/18 11:54:44;;;;;;;7.93;1.23;;;;;;;;;;4997644;28;20084;-72
2022/12/18 11:57:16;;;;;;;6.00;1.55;;;;;;;;;;4999648;28;20030;-70
2022/12/18 12:00:02;;;;;;;2.63;1.08;;;;;;;;;;4995395;28;20030;-70
2022/12/18 12:02:34;;;;;;;5.55;1.40;;;;;;;;;;4999223;28;20426;-69
2022/12/18 12:05:03;;;;;;;12.88;3.83;;;;;;;;;;4998602;28;20026;-69
2022/12/18 12:07:36;;;;;;;7.35;2.50;;;;;;;;;;4991959;28;20076;-69
2022/12/18 12:10:03;;;;;;;10.15;1.80;;;;;;;;;;4995835;28;20025;-69
2022/12/18 12:12:29;;;;;;;5.25;1.33;;;;;;;;;;5000607;28;20030;-69
2022/12/18 12:14:55;;;;;;;8.52;1.10;;;;;;;;;;4994398;28;20019;-69
2022/12/18 12:17:38;;;;;;;5.72;1.10;;;;;;;;;;5000585;28;20056;-69
2022/12/18 12:20:04;;;;;;;4.80;1.30;;;;;;;;;;4993706;28;20030;-69
2022/12/18 12:22:39;;;;;;;5.15;1.23;;;;;;;;;;4997064;28;20811;-70
2022/12/18 12:25:06;;;;;;;7.15;1.60;;;;;;;;;;4998730;28;20033;-69
2022/12/18 12:27:50;;;;;;;4.07;1.20;;;;;;;;;;4998485;28;20050;-70
2022/12/18 12:30:21;;;;;;;4.28;1.65;;;;;;;;;;4997207;28;20077;-70
2022/12/18 12:33:00;;;;;;;6.25;1.30;;;;;;;;;;4990549;28;20029;-69
2022/12/18 12:35:29;;;;;;;5.82;1.60;;;;;;;;;;4999000;28;20421;-70
2022/12/18 12:38:08;;;;;;;5.05;1.45;;;;;;;;;;4996373;28;20047;-70
2022/12/18 12:40:35;;;;;;;10.65;1.42;;;;;;;;;;4996667;28;20181;-69
2022/12/18 12:43:14;;;;;;;7.85;1.63;;;;;;;;;;4996548;28;20101;-70
2022/12/18 12:45:55;;;;;;;8.95;1.70;;;;;;;;;;4998156;28;20075;-69
2022/12/18 12:48:24;;;;;;;6.95;1.15;;;;;;;;;;4994169;28;20026;-69
2022/12/18 12:50:50;;;;;;;5.47;1.20;;;;;;;;;;4996665;28;20430;-70
2022/12/18 12:53:22;;;;;;;8.07;1.45;;;;;;;;;;4994290;28;20034;-69
2022/12/18 12:55:48;;;;;;;9.55;1.60;;;;;;;;;;4998835;28;20034;-70
2022/12/18 12:58:23;;;;;;;5.00;1.65;;;;;;;;;;4996485;28;20097;-71
2022/12/18 13:01:02;;;;;;;4.55;1.45;;;;;;;;;;4996444;28;20032;-70
2022/12/18 13:03:28;;;;;;;5.32;2.05;;;;;;;;;;4999725;28;20029;-69
2022/12/18 13:06:20;;;;;;;5.32;1.50;;;;;;;;;;4994352;28;20018;-69
2022/12/18 13:08:57;;;;;;;4.07;1.90;;;;;;;;;;4979161;28;20057;-69
2022/12/18 13:14:32;;;;;;;5.65;1.63;;;;;;;;;;4999308;28;20048;-69
2022/12/18 13:17:17;;;;;;;18.33;1.67;;;;;;;;;;4993278;28;20037;-69
2022/12/18 13:19:43;;;;;;;6.97;1.70;;;;;;;;;;4997270;28;20032;-69
2022/12/18 13:22:24;;;;;;;4.28;1.58;;;;;;;;;;4995142;28;20376;-70
2022/12/18 13:24:50;;;;;;;6.00;1.83;;;;;;;;;;4992502;28;20026;-70
2022/12/18 13:27:46;;;;;;;3.58;1.25;;;;;;;;;;5011976;28;20407;-70
2022/12/18 13:30:30;;;;;;;4.75;1.30;;;;;;;;;;4943568;28;20523;-70
2022/12/18 13:33:16;;;;;;;5.82;1.45;;;;;;;;;;4994400;28;20402;-69
2022/12/18 13:36:02;;;;;;;9.82;1.35;;;;;;;;;;4998944;28;20057;-70
2022/12/18 13:38:31;;;;;;;6.78;1.45;;;;;;;;;;4988218;28;20049;-70
2022/12/18 13:40:58;;;;;;;6.03;1.83;;;;;;;;;;4994567;28;20541;-70
2022/12/18 13:43:27;;;;;;;4.75;1.60;;;;;;;;;;4994816;28;20026;-70
2022/12/18 13:46:13;;;;;;;6.30;1.90;;;;;;;;;;4994930;28;20036;-70
2022/12/18 13:48:40;;;;;;;6.63;1.83;;;;;;;;;;4992024;28;20593;-71
2022/12/18 13:51:10;;;;;;;11.70;2.17;;;;;;;;;;4993504;28;20030;-71
2022/12/18 13:53:49;;;;;;;7.22;1.40;;;;;;;;;;4996804;28;20148;-70
2022/12/18 13:56:18;;;;;;;6.10;1.45;;;;;;;;;;4995070;28;20029;-69
2022/12/18 13:58:44;;;;;;;5.78;1.73;;;;;;;;;;4995542;28;20025;-68
2022/12/18 14:01:22;;;;;;;4.65;1.40;;;;;;;;;;4994415;28;20034;-73
2022/12/18 14:03:49;;;;;;;6.60;1.70;;;;;;;;;;4996483;28;20111;-69
2022/12/18 14:06:15;;;;;;;5.15;1.83;;;;;;;;;;4998633;28;20314;-69
2022/12/18 14:08:42;;;;;;;10.40;1.75;;;;;;;;;;4996638;28;20022;-69
2022/12/18 14:11:15;;;;;;;9.20;1.65;;;;;;;;;;4996459;28;20045;-72
2022/12/18 14:13:42;;;;;;;7.82;1.50;;;;;;;;;;4995817;28;20027;-69
2022/12/18 14:16:08;;;;;;;8.25;1.60;;;;;;;;;;4992500;28;20030;-69
2022/12/18 14:18:37;;;;;;;4.40;1.50;;;;;;;;;;5000789;28;20081;-74
2022/12/18 14:21:04;;;;;;;5.20;1.80;;;;;;;;;;4994513;28;20026;-75
2022/12/18 14:23:30;;;;;;;6.45;1.60;;;;;;;;;;4995264;28;20017;-76
2022/12/18 14:25:56;;;;;;;6.28;1.55;;;;;;;;;;4996498;28;20785;-81
2022/12/18 14:28:23;;;;;;;6.53;1.52;;;;;;;;;;4995685;28;20701;-77
2022/12/18 14:30:50;;;;;;;3.55;1.35;;;;;;;;;;4997418;28;20084;-77
2022/12/18 14:33:20;;;;;;;6.95;1.40;;;;;;;;;;4998069;28;20037;-78
2022/12/18 14:36:13;;;;;;;4.15;1.73;;;;;;;;;;4997092;28;20524;-76
2022/12/18 14:38:40;;;;;;;6.53;1.63;;;;;;;;;;4994301;28;20212;-80
2022/12/18 14:41:06;;;;;;;11.82;2.25;;;;;;;;;;4994107;28;20029;-81
2022/12/18 14:43:35;;;;;;;5.93;1.95;;;;;;;;;;4996038;28;20120;-77
2022/12/18 14:46:02;;;;;;;7.20;1.75;;;;;;;;;;4995987;28;20112;-79
2022/12/18 14:48:36;;;;;;;7.05;1.67;;;;;;;;;;4991132;28;20030;-78
2022/12/18 14:51:04;;;;;;;6.10;1.40;;;;;;;;;;4998067;28;20042;-71
2022/12/18 14:53:56;;;;;;;8.48;2.08;;;;;;;;;;4996736;28;20231;-71
2022/12/18 14:56:25;;;;;;;5.57;1.63;;;;;;;;;;4993732;28;20064;-75
2022/12/18 14:58:53;;;;;;;5.32;1.77;;;;;;;;;;4999610;28;20041;-78
2022/12/18 15:01:24;;;;;;;5.40;1.27;;;;;;;;;;4999971;28;20018;-79
2022/12/18 15:03:52;;;;;;;7.13;1.63;;;;;;;;;;4997202;28;20061;-77